Time;durP1;ratioP1;P1;durP2;ratioP2;P2;SDS_P1;SDS_P2;PMS_P1;PMS_P2;Temp;Humidity;BMP_temperature;BMP_pressure;BME280_temperature;BME280_humidity;BME280_pressure;Samples;Min_cycle;Max_cycle;Signal;HPM_P1;HPM_P2
2022/06/13 00:02:12;;;;;;;;;;;20.60;99.90;;;;;;5083213;28;20286;-69
2022/06/13 00:04:39;;;;;;;;;;;20.60;99.90;;;;;;5083713;28;19936;-69
2022/06/13 00:07:05;;;;;;;;;;;20.60;99.90;;;;;;5080076;28;19920;-69
2022/06/13 00:09:32;;;;;;;;;;;20.60;99.90;;;;;;5082967;28;19939;-69
2022/06/13 00:11:58;;;;;;;;;;;20.70;99.90;;;;;;5083362;28;19999;-69
2022/06/13 00:14:25;;;;;;;;;;;20.70;99.90;;;;;;5083108;28;19920;-69
2022/06/13 00:16:53;;;;;;;;;;;20.60;99.90;;;;;;5082595;28;19951;-69
2022/06/13 00:19:20;;;;;;;;;;;20.60;99.90;;;;;;5083212;28;19966;-69
2022/06/13 00:21:46;;;;;;;;;;;20.60;99.90;;;;;;5069933;28;19928;-69
2022/06/13 00:24:13;;;;;;;;;;;20.60;99.90;;;;;;5082658;28;20211;-69
2022/06/13 00:26:40;;;;;;;;;;;20.50;99.90;;;;;;5063221;28;19952;-69
2022/06/13 00:29:07;;;;;;;;;;;20.60;99.90;;;;;;5073047;28;20243;-68
2022/06/13 00:31:34;;;;;;;;;;;20.60;99.90;;;;;;5063307;28;19952;-69
2022/06/13 00:34:02;;;;;;;;;;;20.50;99.90;;;;;;5063091;28;19921;-69
2022/06/13 00:36:28;;;;;;;;;;;20.50;99.90;;;;;;5066140;28;20182;-69
2022/06/13 00:38:55;;;;;;;;;;;20.50;99.90;;;;;;5077599;28;19948;-69
2022/06/13 00:41:24;;;;;;;;;;;20.50;99.90;;;;;;5086925;28;19987;-69
2022/06/13 00:43:51;;;;;;;;;;;20.40;99.90;;;;;;5087238;28;19920;-69
2022/06/13 00:46:20;;;;;;;;;;;20.20;99.90;;;;;;5086567;28;19921;-69
2022/06/13 00:48:48;;;;;;;;;;;20.00;99.90;;;;;;5086889;28;19920;-69
2022/06/13 00:51:16;;;;;;;;;;;19.70;99.90;;;;;;5086969;28;20131;-70
2022/06/13 00:53:43;;;;;;;;;;;19.20;99.90;;;;;;5087006;28;19920;-69
2022/06/13 00:56:11;;;;;;;;;;;18.60;99.90;;;;;;5070593;28;19936;-70
2022/06/13 00:58:40;;;;;;;;;;;18.20;99.90;;;;;;5085820;28;19959;-70
2022/06/13 01:01:07;;;;;;;;;;;18.00;99.90;;;;;;5086893;28;19952;-70
2022/06/13 01:03:34;;;;;;;;;;;17.80;99.90;;;;;;5087131;28;19920;-70
2022/06/13 01:06:03;;;;;;;;;;;17.70;99.90;;;;;;5084748;28;19932;-70
2022/06/13 01:08:33;;;;;;;;;;;17.60;99.90;;;;;;5085499;28;19943;-69
2022/06/13 01:11:18;;;;;;;;;;;17.60;99.90;;;;;;5086731;28;20171;-70
2022/06/13 01:13:52;;;;;;;;;;;17.50;99.90;;;;;;5086480;28;19920;-70
2022/06/13 01:16:25;;;;;;;;;;;17.40;99.90;;;;;;5086250;28;19956;-69
2022/06/13 01:19:08;;;;;;;;;;;17.40;99.90;;;;;;5086372;28;19951;-69
2022/06/13 01:21:39;;;;;;;;;;;17.30;99.90;;;;;;5083612;28;19935;-69
2022/06/13 01:24:24;;;;;;;;;;;17.30;99.90;;;;;;5078809;28;19920;-69
2022/06/13 01:27:07;;;;;;;;;;;17.20;99.90;;;;;;5083857;28;19951;-70
2022/06/13 01:29:48;;;;;;;;;;;17.20;99.90;;;;;;5083983;28;19971;-70
2022/06/13 01:32:24;;;;;;;;;;;17.00;99.90;;;;;;5083852;28;19955;-70
2022/06/13 01:34:57;;;;;;;;;;;17.00;99.90;;;;;;5085762;28;19971;-70
2022/06/13 01:37:34;;;;;;;;;;;16.80;99.90;;;;;;5085032;28;19980;-70
2022/06/13 01:40:04;;;;;;;;;;;16.80;99.90;;;;;;5086796;28;19963;-70
2022/06/13 01:42:38;;;;;;;;;;;16.70;99.90;;;;;;5086263;28;19920;-69
2022/06/13 01:45:08;;;;;;;;;;;16.60;99.90;;;;;;5086181;28;20166;-69
2022/06/13 01:47:40;;;;;;;;;;;16.50;99.90;;;;;;5084642;28;20231;-69
2022/06/13 01:50:09;;;;;;;;;;;16.50;99.90;;;;;;5085625;28;19921;-70
2022/06/13 01:52:42;;;;;;;;;;;16.50;99.90;;;;;;5085675;28;19952;-69
2022/06/13 01:55:14;;;;;;;;;;;16.50;99.90;;;;;;5085528;28;19996;-69
2022/06/13 01:57:44;;;;;;;;;;;16.50;99.90;;;;;;5070510;28;19955;-69
2022/06/13 02:00:12;;;;;;;;;;;16.60;99.90;;;;;;5073083;28;19928;-69
2022/06/13 02:02:45;;;;;;;;;;;16.60;99.90;;;;;;5065005;28;20213;-69
2022/06/13 02:05:14;;;;;;;;;;;16.70;99.90;;;;;;5079951;28;20239;-70
2022/06/13 02:07:46;;;;;;;;;;;16.70;99.90;;;;;;5073329;28;19956;-70
2022/06/13 02:10:16;;;;;;;;;;;16.80;99.90;;;;;;5065423;28;19921;-70
2022/06/13 02:12:43;;;;;;;;;;;16.70;99.90;;;;;;5065508;28;19956;-70
2022/06/13 02:15:14;;;;;;;;;;;16.70;99.90;;;;;;5064918;28;19980;-69
2022/06/13 02:17:42;;;;;;;;;;;16.60;99.90;;;;;;5067935;28;19939;-70
2022/06/13 02:20:12;;;;;;;;;;;16.60;99.90;;;;;;5071879;28;19976;-69
2022/06/13 02:22:40;;;;;;;;;;;16.60;99.90;;;;;;5085090;28;19980;-70
2022/06/13 02:25:08;;;;;;;;;;;16.60;99.90;;;;;;5079695;28;20172;-70
2022/06/13 02:27:36;;;;;;;;;;;16.60;99.90;;;;;;5084693;28;20284;-70
2022/06/13 02:30:04;;;;;;;;;;;16.50;99.90;;;;;;5085361;28;19920;-69
2022/06/13 02:32:32;;;;;;;;;;;16.50;99.90;;;;;;5085144;28;19955;-69
2022/06/13 02:35:03;;;;;;;;;;;16.50;99.90;;;;;;5084809;28;19996;-69
2022/06/13 02:37:33;;;;;;;;;;;16.40;99.90;;;;;;5084316;28;19963;-70
2022/06/13 02:40:04;;;;;;;;;;;16.30;99.90;;;;;;5085061;28;19955;-70
2022/06/13 02:42:34;;;;;;;;;;;16.30;99.90;;;;;;5077791;28;19920;-69
2022/06/13 02:45:02;;;;;;;;;;;16.20;99.90;;;;;;5084347;28;19960;-69
2022/06/13 02:47:31;;;;;;;;;;;16.10;99.90;;;;;;5084347;28;19944;-69
2022/06/13 02:49:59;;;;;;;;;;;16.10;99.90;;;;;;5071830;28;19928;-69
2022/06/13 02:52:28;;;;;;;;;;;16.00;99.90;;;;;;5085001;28;19955;-69
2022/06/13 02:54:58;;;;;;;;;;;16.00;99.90;;;;;;5084302;28;19928;-70
2022/06/13 02:57:35;;;;;;;;;;;16.00;99.90;;;;;;5083732;28;19920;-69
2022/06/13 03:00:23;;;;;;;;;;;15.90;99.90;;;;;;5084842;28;20035;-69
2022/06/13 03:02:52;;;;;;;;;;;15.90;99.90;;;;;;5078147;28;19927;-69
2022/06/13 03:05:28;;;;;;;;;;;15.80;99.90;;;;;;5083554;28;19996;-69
2022/06/13 03:07:57;;;;;;;;;;;15.70;99.90;;;;;;5078227;28;19921;-70
2022/06/13 03:10:30;;;;;;;;;;;15.70;99.90;;;;;;5064606;28;20234;-69
2022/06/13 03:12:59;;;;;;;;;;;15.80;99.90;;;;;;5064394;28;19921;-69
2022/06/13 03:15:28;;;;;;;;;;;15.70;99.90;;;;;;5074987;28;19920;-69
2022/06/13 03:17:56;;;;;;;;;;;15.60;99.90;;;;;;5084083;28;19935;-69
2022/06/13 03:20:26;;;;;;;;;;;15.50;99.90;;;;;;5084256;28;19928;-69
2022/06/13 03:22:56;;;;;;;;;;;15.50;99.90;;;;;;5074280;28;19960;-69
2022/06/13 03:25:25;;;;;;;;;;;15.30;99.90;;;;;;5077282;28;19966;-70
2022/06/13 03:27:56;;;;;;;;;;;15.30;99.90;;;;;;5082398;28;19984;-69
2022/06/13 03:30:24;;;;;;;;;;;15.20;99.90;;;;;;5083719;28;19959;-69
2022/06/13 03:35:34;;;;;;;;;;;15.20;99.90;;;;;;5082751;28;19921;-69
2022/06/13 03:38:02;;;;;;;;;;;15.10;99.90;;;;;;5077017;28;19928;-69
2022/06/13 03:40:29;;;;;;;;;;;15.10;99.90;;;;;;5063649;28;19988;-69
2022/06/13 03:43:00;;;;;;;;;;;15.10;99.90;;;;;;5064886;28;19929;-69
2022/06/13 03:45:30;;;;;;;;;;;15.10;99.90;;;;;;5083093;28;19920;-70
2022/06/13 03:48:02;;;;;;;;;;;15.10;99.90;;;;;;5083806;28;19984;-69
2022/06/13 03:50:30;;;;;;;;;;;15.10;99.90;;;;;;5083869;28;19988;-69
2022/06/13 03:52:59;;;;;;;;;;;15.20;99.90;;;;;;5083227;28;20096;-69
2022/06/13 03:55:28;;;;;;;;;;;15.20;99.90;;;;;;5083186;28;19926;-69
2022/06/13 03:57:57;;;;;;;;;;;15.30;99.90;;;;;;5083286;28;19972;-70
2022/06/13 04:00:26;;;;;;;;;;;15.40;99.90;;;;;;5083593;28;19927;-69
2022/06/13 04:02:55;;;;;;;;;;;15.40;99.90;;;;;;5083396;28;19992;-69
2022/06/13 04:05:24;;;;;;;;;;;15.40;99.90;;;;;;5083129;28;19920;-69
2022/06/13 04:07:51;;;;;;;;;;;15.50;99.90;;;;;;5078279;28;19956;-69
2022/06/13 04:10:21;;;;;;;;;;;15.50;99.90;;;;;;5062947;28;19921;-69
2022/06/13 04:12:55;;;;;;;;;;;15.60;99.90;;;;;;5072888;28;19948;-70
2022/06/13 04:15:37;;;;;;;;;;;15.60;99.90;;;;;;5082596;28;19920;-69
2022/06/13 04:18:11;;;;;;;;;;;15.50;99.90;;;;;;5083183;28;19927;-69
2022/06/13 04:20:43;;;;;;;;;;;15.60;99.90;;;;;;5082831;28;19991;-69
2022/06/13 04:23:13;;;;;;;;;;;15.60;99.90;;;;;;5076307;28;19948;-69
2022/06/13 04:25:46;;;;;;;;;;;15.60;99.90;;;;;;5079281;28;19959;-69
2022/06/13 04:28:17;;;;;;;;;;;15.60;99.90;;;;;;5070601;28;20212;-69
2022/06/13 04:30:44;;;;;;;;;;;15.50;99.90;;;;;;5071626;28;19952;-69
2022/06/13 04:33:15;;;;;;;;;;;15.50;99.90;;;;;;5063201;28;19963;-68
2022/06/13 04:35:42;;;;;;;;;;;15.50;99.90;;;;;;5079942;28;20131;-69
2022/06/13 04:38:11;;;;;;;;;;;15.60;99.90;;;;;;5082787;28;19920;-69
2022/06/13 04:40:39;;;;;;;;;;;15.60;99.90;;;;;;5082873;28;19948;-70
2022/06/13 04:43:07;;;;;;;;;;;15.70;99.90;;;;;;5062772;28;19975;-69
2022/06/13 04:45:38;;;;;;;;;;;15.60;99.90;;;;;;5067977;28;20243;-70
2022/06/13 04:48:04;;;;;;;;;;;15.60;99.90;;;;;;5082930;28;19983;-70
2022/06/13 04:50:34;;;;;;;;;;;15.80;99.90;;;;;;5082870;28;19952;-69
2022/06/13 04:53:01;;;;;;;;;;;15.80;99.90;;;;;;5082573;28;19988;-70
2022/06/13 04:55:31;;;;;;;;;;;15.90;99.90;;;;;;5073916;28;20108;-70
2022/06/13 04:57:59;;;;;;;;;;;16.00;99.90;;;;;;5082705;28;20116;-70
2022/06/13 05:00:26;;;;;;;;;;;16.00;99.90;;;;;;5082966;28;19955;-68
2022/06/13 05:02:54;;;;;;;;;;;16.10;99.90;;;;;;5082587;28;19921;-68
2022/06/13 05:05:26;;;;;;;;;;;16.20;99.90;;;;;;5082007;28;19927;-68
2022/06/13 05:07:55;;;;;;;;;;;16.30;99.90;;;;;;5077242;28;19952;-68
2022/06/13 05:10:22;;;;;;;;;;;16.30;99.90;;;;;;5062641;28;19920;-68
2022/06/13 05:12:50;;;;;;;;;;;16.30;99.90;;;;;;5080475;28;20208;-68
2022/06/13 05:15:18;;;;;;;;;;;16.30;99.90;;;;;;5082036;28;20014;-69
2022/06/13 05:17:53;;;;;;;;;;;16.50;99.90;;;;;;5082818;28;19921;-68
2022/06/13 05:20:23;;;;;;;;;;;16.50;99.90;;;;;;5082784;28;19920;-67
2022/06/13 05:22:57;;;;;;;;;;;16.50;99.90;;;;;;5074607;28;19928;-68
2022/06/13 05:25:30;;;;;;;;;;;16.60;99.90;;;;;;5085464;28;19954;-68
2022/06/13 05:27:56;;;;;;;;;;;16.60;99.90;;;;;;5077979;28;19951;-68
2022/06/13 05:30:23;;;;;;;;;;;16.60;99.90;;;;;;5086437;28;19954;-68
2022/06/13 05:32:50;;;;;;;;;;;16.60;99.90;;;;;;5086103;28;19928;-68
2022/06/13 05:35:23;;;;;;;;;;;16.60;99.90;;;;;;5085463;28;19920;-67
2022/06/13 05:37:50;;;;;;;;;;;16.60;99.90;;;;;;5083422;28;19927;-68
2022/06/13 05:40:18;;;;;;;;;;;16.70;99.90;;;;;;5065569;28;20186;-69
2022/06/13 05:42:46;;;;;;;;;;;16.80;99.90;;;;;;5078034;28;20204;-69
2022/06/13 05:45:14;;;;;;;;;;;16.90;99.90;;;;;;5076069;28;19927;-69
2022/06/13 05:47:41;;;;;;;;;;;16.90;99.90;;;;;;5079971;28;19920;-69
2022/06/13 05:50:10;;;;;;;;;;;17.00;99.90;;;;;;5085769;28;20127;-69
2022/06/13 05:52:36;;;;;;;;;;;17.00;99.90;;;;;;5085237;28;19928;-68
2022/06/13 05:55:04;;;;;;;;;;;17.10;99.90;;;;;;5082823;28;19948;-67
2022/06/13 05:57:31;;;;;;;;;;;17.20;99.90;;;;;;5085443;28;19984;-68
2022/06/13 05:59:59;;;;;;;;;;;17.30;99.90;;;;;;5086062;28;19927;-68
2022/06/13 06:02:26;;;;;;;;;;;17.40;99.90;;;;;;5084274;28;19928;-68
2022/06/13 06:04:53;;;;;;;;;;;17.50;99.90;;;;;;5066190;28;20008;-68
2022/06/13 06:07:19;;;;;;;;;;;17.60;99.90;;;;;;5065025;28;20231;-68
2022/06/13 06:09:46;;;;;;;;;;;17.50;99.90;;;;;;5065603;28;20232;-68
2022/06/13 06:12:13;;;;;;;;;;;17.60;99.90;;;;;;5077886;28;19956;-68
2022/06/13 06:14:39;;;;;;;;;;;17.60;99.90;;;;;;5085673;28;19955;-69
2022/06/13 06:17:07;;;;;;;;;;;17.60;99.90;;;;;;5085156;28;19956;-68
2022/06/13 06:19:34;;;;;;;;;;;17.60;99.90;;;;;;5086110;28;19963;-68
2022/06/13 06:22:00;;;;;;;;;;;17.60;99.90;;;;;;5085649;28;19955;-68
2022/06/13 06:24:27;;;;;;;;;;;17.70;99.90;;;;;;5082387;28;19962;-68
2022/06/13 06:26:55;;;;;;;;;;;17.60;99.90;;;;;;5084701;28;19927;-68
2022/06/13 06:29:21;;;;;;;;;;;17.70;99.90;;;;;;5085427;28;19920;-68
2022/06/13 06:31:54;;;;;;;;;;;17.60;99.90;;;;;;5084784;28;19985;-67
2022/06/13 06:34:22;;;;;;;;;;;17.60;99.90;;;;;;5085265;28;19921;-68
2022/06/13 06:36:48;;;;;;;;;;;17.60;99.90;;;;;;5084598;28;20266;-68
2022/06/13 06:39:15;;;;;;;;;;;17.70;99.90;;;;;;5072442;28;19974;-66
2022/06/13 06:41:43;;;;;;;;;;;17.80;99.90;;;;;;5066681;28;19959;-69
2022/06/13 06:44:10;;;;;;;;;;;17.90;99.90;;;;;;5085428;28;19920;-69
2022/06/13 06:46:36;;;;;;;;;;;17.90;99.90;;;;;;5084892;28;19981;-69
2022/06/13 06:49:03;;;;;;;;;;;18.00;99.90;;;;;;5085492;28;19952;-69
2022/06/13 06:51:31;;;;;;;;;;;18.00;99.90;;;;;;5085424;28;19920;-68
2022/06/13 07:02:11;;;;;;;;;;;18.20;99.90;;;;;;5084928;28;19924;-69
2022/06/13 07:04:37;;;;;;;;;;;18.30;99.90;;;;;;5084717;28;19962;-70
2022/06/13 07:07:05;;;;;;;;;;;18.30;99.90;;;;;;5082867;28;20227;-69
2022/06/13 07:09:32;;;;;;;;;;;18.30;99.90;;;;;;5084488;28;19935;-69
2022/06/13 07:12:00;;;;;;;;;;;18.40;99.90;;;;;;5082924;28;19921;-69
2022/06/13 07:14:27;;;;;;;;;;;18.40;99.90;;;;;;5084566;28;19920;-69
2022/06/13 07:16:54;;;;;;;;;;;18.50;99.90;;;;;;5083802;28;19926;-69
2022/06/13 07:19:23;;;;;;;;;;;18.60;99.90;;;;;;5081682;28;20620;-69
2022/06/13 07:21:50;;;;;;;;;;;18.60;99.90;;;;;;5083922;28;20107;-69
2022/06/13 07:24:18;;;;;;;;;;;18.70;99.90;;;;;;5081521;28;19952;-69
2022/06/13 07:26:45;;;;;;;;;;;18.70;99.90;;;;;;5075563;28;19944;-69
2022/06/13 07:29:12;;;;;;;;;;;18.70;99.90;;;;;;5082307;28;19920;-70
2022/06/13 07:31:40;;;;;;;;;;;18.60;99.90;;;;;;5084616;28;19984;-69
2022/06/13 07:34:08;;;;;;;;;;;18.70;99.90;;;;;;5084234;28;20255;-69
2022/06/13 07:36:35;;;;;;;;;;;18.60;99.90;;;;;;5080652;28;19944;-69
2022/06/13 07:39:01;;;;;;;;;;;18.70;99.90;;;;;;5084387;28;19920;-69
2022/06/13 07:41:29;;;;;;;;;;;18.80;99.90;;;;;;5084495;28;19920;-69
2022/06/13 07:43:57;;;;;;;;;;;18.80;99.90;;;;;;5083496;28;19921;-70
2022/06/13 07:46:25;;;;;;;;;;;18.80;99.90;;;;;;5063553;28;19952;-69
2022/06/13 07:48:52;;;;;;;;;;;18.90;99.90;;;;;;5064271;28;19927;-69
2022/06/13 07:51:18;;;;;;;;;;;19.00;99.90;;;;;;5064610;28;19921;-69
2022/06/13 07:53:45;;;;;;;;;;;19.00;99.90;;;;;;5064379;28;19952;-69
2022/06/13 07:56:13;;;;;;;;;;;19.00;99.90;;;;;;5063098;28;19940;-68
2022/06/13 07:58:42;;;;;;;;;;;19.00;99.90;;;;;;5064311;28;19956;-69
2022/06/13 08:01:10;;;;;;;;;;;19.00;99.90;;;;;;5064172;28;19956;-69
2022/06/13 08:03:37;;;;;;;;;;;19.00;99.90;;;;;;5064038;28;20151;-68
2022/06/13 08:06:04;;;;;;;;;;;19.00;99.90;;;;;;5063189;28;19963;-68
2022/06/13 08:08:31;;;;;;;;;;;19.10;99.90;;;;;;5063874;28;19920;-68
2022/06/13 08:10:58;;;;;;;;;;;19.10;99.90;;;;;;5081297;28;19921;-68
2022/06/13 08:13:26;;;;;;;;;;;19.10;99.90;;;;;;5083931;28;19955;-69
2022/06/13 08:15:54;;;;;;;;;;;19.20;99.90;;;;;;5082637;28;20124;-69
2022/06/13 08:18:21;;;;;;;;;;;19.20;99.90;;;;;;5083986;28;19920;-69
2022/06/13 08:20:47;;;;;;;;;;;19.30;99.90;;;;;;5084062;28;19928;-68
2022/06/13 08:23:15;;;;;;;;;;;19.30;99.90;;;;;;5083792;28;19963;-69
2022/06/13 08:25:42;;;;;;;;;;;19.30;99.90;;;;;;5083126;28;19963;-69
2022/06/13 08:28:10;;;;;;;;;;;19.40;99.90;;;;;;5083854;28;20142;-69
2022/06/13 08:30:38;;;;;;;;;;;19.60;99.90;;;;;;5083289;28;19927;-68
2022/06/13 08:33:06;;;;;;;;;;;19.70;99.90;;;;;;5083528;28;19921;-69
2022/06/13 08:35:33;;;;;;;;;;;19.80;99.90;;;;;;5082955;28;19927;-69
2022/06/13 08:38:03;;;;;;;;;;;19.90;99.90;;;;;;5080778;28;19920;-69
2022/06/13 08:40:34;;;;;;;;;;;19.90;99.90;;;;;;5064087;28;19927;-69
2022/06/13 08:43:07;;;;;;;;;;;19.80;99.90;;;;;;5074412;28;19983;-69
2022/06/13 08:45:38;;;;;;;;;;;19.80;99.90;;;;;;5083138;28;19963;-69
2022/06/13 08:48:08;;;;;;;;;;;19.70;99.90;;;;;;5083726;28;19921;-70
2022/06/13 08:50:38;;;;;;;;;;;19.70;99.90;;;;;;5083418;28;19999;-69
2022/06/13 08:53:08;;;;;;;;;;;19.70;99.90;;;;;;5083232;28;19920;-69
2022/06/13 08:55:37;;;;;;;;;;;19.60;99.90;;;;;;5083056;28;19952;-69
2022/06/13 08:58:12;;;;;;;;;;;19.80;99.90;;;;;;5087231;28;19920;-69
2022/06/13 09:00:41;;;;;;;;;;;19.80;99.90;;;;;;5087468;28;19924;-69
2022/06/13 09:03:11;;;;;;;;;;;19.90;99.90;;;;;;5087412;28;19921;-69
2022/06/13 09:05:42;;;;;;;;;;;20.00;99.90;;;;;;5086675;28;19956;-69
2022/06/13 09:08:12;;;;;;;;;;;20.10;99.90;;;;;;5087030;28;19959;-69
2022/06/13 09:10:42;;;;;;;;;;;20.10;99.90;;;;;;5087041;28;19928;-69
2022/06/13 09:13:12;;;;;;;;;;;20.10;99.90;;;;;;5087088;28;19983;-70
2022/06/13 09:15:41;;;;;;;;;;;20.20;99.90;;;;;;5086579;28;19978;-70
2022/06/13 09:18:15;;;;;;;;;;;20.10;99.90;;;;;;5086706;28;19920;-68
2022/06/13 09:20:45;;;;;;;;;;;20.20;99.90;;;;;;5087143;28;20111;-68
2022/06/13 09:23:15;;;;;;;;;;;20.30;99.90;;;;;;5078723;28;19921;-69
2022/06/13 09:25:46;;;;;;;;;;;20.50;99.90;;;;;;5086579;28;19926;-68
2022/06/13 09:28:15;;;;;;;;;;;20.50;99.90;;;;;;5083982;28;19920;-67
2022/06/13 09:30:44;;;;;;;;;;;20.60;99.90;;;;;;5074674;28;19952;-68
2022/06/13 09:33:12;;;;;;;;;;;20.60;99.90;;;;;;5082644;28;19952;-67
2022/06/13 09:35:43;;;;;;;;;;;20.70;99.90;;;;;;5085141;28;19920;-67
2022/06/13 09:38:15;;;;;;;;;;;20.90;99.90;;;;;;5086449;28;19920;-68
2022/06/13 09:40:49;;;;;;;;;;;20.80;99.90;;;;;;5083384;28;20089;-68
2022/06/13 09:43:22;;;;;;;;;;;20.70;99.90;;;;;;5085832;28;19928;-67
2022/06/13 09:45:56;;;;;;;;;;;20.60;99.90;;;;;;5077141;28;19948;-68
2022/06/13 09:48:31;;;;;;;;;;;20.50;99.90;;;;;;5068519;28;19921;-67
2022/06/13 09:51:05;;;;;;;;;;;20.50;99.90;;;;;;5083352;28;19928;-68
2022/06/13 09:53:35;;;;;;;;;;;20.50;99.90;;;;;;5070626;28;20116;-68
2022/06/13 09:56:04;;;;;;;;;;;20.60;99.90;;;;;;5067225;28;19928;-68
2022/06/13 09:58:40;;;;;;;;;;;20.70;99.90;;;;;;5086366;28;19924;-68
2022/06/13 10:01:09;;;;;;;;;;;20.70;99.90;;;;;;5085772;28;20262;-68
2022/06/13 10:03:41;;;;;;;;;;;20.50;99.90;;;;;;5086000;28;19959;-68
2022/06/13 10:06:10;;;;;;;;;;;20.60;99.90;;;;;;5085426;28;19958;-68
2022/06/13 10:08:43;;;;;;;;;;;20.70;99.90;;;;;;5082248;28;19954;-68
2022/06/13 10:11:14;;;;;;;;;;;20.70;99.90;;;;;;5085840;28;19920;-68
2022/06/13 10:13:49;;;;;;;;;;;20.70;99.90;;;;;;5086187;28;19928;-67
2022/06/13 10:16:19;;;;;;;;;;;20.70;99.90;;;;;;5085171;28;19928;-68
2022/06/13 10:19:04;;;;;;;;;;;20.70;99.90;;;;;;5085839;28;19995;-67
2022/06/13 10:21:34;;;;;;;;;;;20.80;99.90;;;;;;5085613;28;19948;-67
2022/06/13 10:24:08;;;;;;;;;;;20.90;99.90;;;;;;5085903;28;19927;-67
2022/06/13 10:26:40;;;;;;;;;;;21.00;99.90;;;;;;5083812;28;19920;-67
2022/06/13 10:29:12;;;;;;;;;;;21.10;99.90;;;;;;5085547;28;19948;-68
2022/06/13 10:31:48;;;;;;;;;;;21.30;99.90;;;;;;5077257;28;19928;-68
2022/06/13 10:34:24;;;;;;;;;;;21.50;99.90;;;;;;5078987;28;19948;-68
2022/06/13 10:36:56;;;;;;;;;;;21.50;99.90;;;;;;5064766;28;20166;-67
2022/06/13 10:39:25;;;;;;;;;;;21.40;99.90;;;;;;5064567;28;19948;-68
2022/06/13 10:41:53;;;;;;;;;;;21.40;99.90;;;;;;5075710;28;19921;-68
2022/06/13 10:44:20;;;;;;;;;;;21.40;99.90;;;;;;5076800;28;19987;-67
2022/06/13 10:46:50;;;;;;;;;;;21.40;99.90;;;;;;5081490;28;19982;-68
2022/06/13 10:49:19;;;;;;;;;;;21.20;99.90;;;;;;5076280;28;19944;-68
2022/06/13 10:51:46;;;;;;;;;;;21.00;99.90;;;;;;5075388;28;20208;-67
2022/06/13 10:54:16;;;;;;;;;;;21.00;99.90;;;;;;5076967;28;19970;-68
2022/06/13 10:56:44;;;;;;;;;;;21.10;99.90;;;;;;5074321;28;19928;-68
2022/06/13 10:59:22;;;;;;;;;;;20.90;99.90;;;;;;5084695;28;19942;-68
2022/06/13 11:01:52;;;;;;;;;;;21.00;99.90;;;;;;5084747;28;19955;-68
2022/06/13 11:04:20;;;;;;;;;;;21.20;99.90;;;;;;5082831;28;20035;-67
2022/06/13 11:06:47;;;;;;;;;;;21.50;99.90;;;;;;5082920;28;19955;-68
2022/06/13 11:09:22;;;;;;;;;;;21.90;99.90;;;;;;5082919;28;19952;-67
2022/06/13 11:11:53;;;;;;;;;;;22.10;99.90;;;;;;5083514;28;19963;-67
2022/06/13 11:14:26;;;;;;;;;;;22.00;99.90;;;;;;5083991;28;19921;-68
2022/06/13 11:22:40;;;;;;;;;;;21.60;99.90;;;;;;5084250;28;20261;-67
2022/06/13 11:25:18;;;;;;;;;;;21.70;99.90;;;;;;5083569;28;20191;-67
2022/06/13 11:27:48;;;;;;;;;;;22.10;99.90;;;;;;5083642;28;19925;-67
2022/06/13 11:30:19;;;;;;;;;;;22.10;99.90;;;;;;5083777;28;19930;-67
2022/06/13 11:32:55;;;;;;;;;;;21.90;99.90;;;;;;5080408;28;20132;-67
2022/06/13 11:35:29;;;;;;;;;;;21.90;99.90;;;;;;5082207;28;20124;-67
2022/06/13 11:37:56;;;;;;;;;;;21.90;99.90;;;;;;5083975;28;19951;-67
2022/06/13 11:40:25;;;;;;;;;;;21.60;99.90;;;;;;5082478;28;19951;-67
2022/06/13 11:42:53;;;;;;;;;;;21.80;99.90;;;;;;5081940;28;20014;-67
2022/06/13 11:45:22;;;;;;;;;;;22.00;99.70;;;;;;5082684;28;19987;-67
2022/06/13 11:47:50;;;;;;;;;;;22.20;99.90;;;;;;5083476;28;19943;-67
2022/06/13 11:50:21;;;;;;;;;;;22.40;99.50;;;;;;5083077;28;20207;-67
2022/06/13 11:55:43;;;;;;;;;;;22.60;99.30;;;;;;5080300;28;20186;-67
2022/06/13 11:58:15;;;;;;;;;;;22.50;99.30;;;;;;5080857;28;19932;-67
2022/06/13 12:00:49;;;;;;;;;;;22.40;98.40;;;;;;5082528;28;19983;-66
2022/06/13 12:03:20;;;;;;;;;;;22.50;99.10;;;;;;5083596;28;19921;-68
2022/06/13 12:05:50;;;;;;;;;;;22.60;98.20;;;;;;5082686;28;19956;-67
2022/06/13 12:08:19;;;;;;;;;;;22.70;96.80;;;;;;5083204;28;19996;-67
2022/06/13 12:10:54;;;;;;;;;;;22.80;97.60;;;;;;5076030;28;19920;-67
2022/06/13 12:13:22;;;;;;;;;;;22.90;96.00;;;;;;5082937;28;19990;-68
2022/06/13 12:15:52;;;;;;;;;;;23.00;97.20;;;;;;5071746;28;19936;-68
2022/06/13 12:18:21;;;;;;;;;;;23.10;95.60;;;;;;5064749;28;20164;-68
2022/06/13 12:20:51;;;;;;;;;;;23.20;95.20;;;;;;5063112;28;19963;-67
2022/06/13 12:23:24;;;;;;;;;;;23.40;95.40;;;;;;5066048;28;20214;-68
2022/06/13 12:25:54;;;;;;;;;;;23.30;94.90;;;;;;5082019;28;19928;-67
2022/06/13 12:28:24;;;;;;;;;;;23.40;95.10;;;;;;5081691;28;19959;-68
2022/06/13 12:30:53;;;;;;;;;;;23.70;94.70;;;;;;5083086;28;19925;-68
2022/06/13 12:33:27;;;;;;;;;;;23.90;93.40;;;;;;5075220;28;19932;-68
2022/06/13 12:35:59;;;;;;;;;;;23.80;92.60;;;;;;5075096;28;19936;-66
2022/06/13 12:38:37;;;;;;;;;;;24.00;93.10;;;;;;5063485;28;19963;-68
2022/06/13 12:41:07;;;;;;;;;;;24.10;92.90;;;;;;5082151;28;19928;-67
2022/06/13 12:43:53;;;;;;;;;;;23.90;92.30;;;;;;5065783;28;19927;-67
2022/06/13 12:46:41;;;;;;;;;;;23.60;92.00;;;;;;5073642;28;19921;-67
2022/06/13 12:49:16;;;;;;;;;;;23.40;91.30;;;;;;5058083;28;19980;-68
2022/06/13 12:51:46;;;;;;;;;;;23.10;91.60;;;;;;5067570;28;19958;-68
2022/06/13 12:54:31;;;;;;;;;;;23.10;90.90;;;;;;5063352;28;19921;-69
2022/06/13 12:57:01;;;;;;;;;;;23.30;91.90;;;;;;5062308;28;20184;-68
2022/06/13 12:59:35;;;;;;;;;;;23.50;90.30;;;;;;5063429;28;19921;-68
2022/06/13 13:02:14;;;;;;;;;;;23.80;90.90;;;;;;5062948;28;19927;-67
2022/06/13 13:04:48;;;;;;;;;;;23.90;91.30;;;;;;5072381;28;19948;-67
2022/06/13 13:07:19;;;;;;;;;;;23.90;90.80;;;;;;5077647;28;19921;-67
2022/06/13 13:10:01;;;;;;;;;;;23.70;90.90;;;;;;5082582;28;19948;-68
2022/06/13 13:12:41;;;;;;;;;;;23.40;89.70;;;;;;5082356;28;19955;-68
2022/06/13 13:15:14;;;;;;;;;;;23.30;88.70;;;;;;5082109;28;19928;-68
2022/06/13 13:17:46;;;;;;;;;;;23.30;89.80;;;;;;5083053;28;19920;-68
2022/06/13 13:20:15;;;;;;;;;;;23.40;90.30;;;;;;5081189;28;19952;-68
2022/06/13 13:22:45;;;;;;;;;;;23.30;90.60;;;;;;5081973;28;19921;-67
2022/06/13 13:25:18;;;;;;;;;;;23.20;90.60;;;;;;5082124;28;19992;-68
2022/06/13 13:27:46;;;;;;;;;;;23.40;91.90;;;;;;5082770;28;19920;-68
2022/06/13 13:30:18;;;;;;;;;;;23.70;90.90;;;;;;5082833;28;20242;-68
2022/06/13 13:32:53;;;;;;;;;;;23.90;89.10;;;;;;5083214;28;19959;-68
2022/06/13 13:35:26;;;;;;;;;;;23.90;90.30;;;;;;5082072;28;19926;-68
2022/06/13 13:37:56;;;;;;;;;;;23.80;90.70;;;;;;5082959;28;19920;-68
2022/06/13 13:40:28;;;;;;;;;;;23.50;90.20;;;;;;5082719;28;20108;-68
2022/06/13 13:42:58;;;;;;;;;;;23.20;90.20;;;;;;5084055;28;19992;-67
2022/06/13 13:45:30;;;;;;;;;;;23.00;91.10;;;;;;5085754;28;19920;-68
2022/06/13 13:48:00;;;;;;;;;;;23.00;91.30;;;;;;5086498;28;20204;-68
2022/06/13 13:50:28;;;;;;;;;;;23.10;91.50;;;;;;5086082;28;19944;-67
2022/06/13 13:52:58;;;;;;;;;;;23.50;91.40;;;;;;5086213;28;19956;-69
2022/06/13 13:55:28;;;;;;;;;;;23.80;90.20;;;;;;5083387;28;20097;-68
2022/06/13 13:57:58;;;;;;;;;;;23.40;89.30;;;;;;5086262;28;20200;-68
2022/06/13 14:00:28;;;;;;;;;;;23.10;90.50;;;;;;5066329;28;19928;-68
2022/06/13 14:03:02;;;;;;;;;;;22.90;91.00;;;;;;5066182;28;19983;-67
2022/06/13 14:05:33;;;;;;;;;;;22.60;90.90;;;;;;5065178;28;19936;-67
2022/06/13 14:08:08;;;;;;;;;;;22.50;91.40;;;;;;5084000;28;19963;-67
2022/06/13 14:10:36;;;;;;;;;;;22.50;92.20;;;;;;5085639;28;19951;-67
2022/06/13 14:13:06;;;;;;;;;;;22.80;91.70;;;;;;5069295;28;19984;-67
2022/06/13 14:15:35;;;;;;;;;;;23.10;91.10;;;;;;5084636;28;19928;-69
2022/06/13 14:18:05;;;;;;;;;;;23.20;90.70;;;;;;5072242;28;20228;-67
2022/06/13 14:20:32;;;;;;;;;;;23.20;90.50;;;;;;5065426;28;19921;-68
2022/06/13 14:23:00;;;;;;;;;;;23.60;89.70;;;;;;5080599;28;19967;-68
2022/06/13 14:25:35;;;;;;;;;;;23.80;89.50;;;;;;5084796;28;20132;-68
2022/06/13 14:28:04;;;;;;;;;;;23.90;87.40;;;;;;5077810;28;19991;-68
2022/06/13 14:35:59;;;;;;;;;;;23.80;89.40;;;;;;5079764;28;19980;-66
2022/06/13 14:38:44;;;;;;;;;;;23.60;89.30;;;;;;5083413;28;20041;-66
2022/06/13 14:41:15;;;;;;;;;;;23.70;90.60;;;;;;5068312;28;19948;-68
2022/06/13 14:43:46;;;;;;;;;;;23.80;90.40;;;;;;5084730;28;20291;-68
2022/06/13 14:46:22;;;;;;;;;;;23.80;87.80;;;;;;5070958;28;20119;-68
2022/06/13 14:48:52;;;;;;;;;;;23.40;89.40;;;;;;5065182;28;19925;-68
2022/06/13 14:51:24;;;;;;;;;;;23.30;89.80;;;;;;5078336;28;20103;-68
2022/06/13 14:53:51;;;;;;;;;;;23.30;89.10;;;;;;5081161;28;19952;-69
2022/06/13 14:56:32;;;;;;;;;;;23.60;90.60;;;;;;5064444;28;20163;-68
2022/06/13 14:58:59;;;;;;;;;;;23.80;89.70;;;;;;5064167;28;19921;-68